Elkton, Colorado
Current Conditions -  °F | °C
As of 1:56 PM on Tuesday 21 Oct 2014 (Local Time) from KCWN Reporting Station
Broken Clouds Broken Clouds  
Wind Chill: 65°   Ceiling: 7500
Heat Index: 65°   Visibility: 10mi
Dew Point: 35°   Wind: 21mph
Humidity: 33%   Direction: 140°SE
Pressure: 30.04"   Gusts: 36mph
Location:  38.6816°N, 105.071°W
Report Text: KCWN 211956Z AUTO 14018G31KT 10SM BKN075 18/02 A3004 RMK AO2 PK WND 13030/45 SLP112 T01840018
Loading
Personal Weather Stations






























Interactive Weather Map
Tropical Storm Tracking
New forecast layout! Learn more

10-Day Weather Forecast

Advertisements
Track Severe Weather on mobile